Bermuda Spirit — C6XT2 — position and weather

sailwx.info

Track history (hours):
 
Tides and Currents Weather Stations Pressure Air Temp Water Temp Dewpoint Dewpoint Depression Visibility Wind Speed Wind Dir Waves Ship Positions

Bermuda Spirit

Last reported at 2014-Oct-22 02:24 UTC. Time now 2014-Oct-25 02:48 UTC.
Position N 35°45' E 032°56'.

Length 274 m; draft 9 m.

Type: Tanker. MMSI: 311020900.

Date/timePositionNaut miles runAvg speedWind from/ knotsBaromVisibWave heightAir tempDewpointWater temp
2014-Oct-22 02:24N 35°45' E 032°56'17 9.3
2014-Oct-22 00:33N 35°44' E 032°34'208 9.7
2014-Oct-21 03:05N 35°45' E 028°18'90 8.4
2014-Oct-20 16:24N 36°35' E 026°46'10 9.8
2014-Oct-20 15:24N 36°45' E 026°44'19 9.8
2014-Oct-20 13:25N 37°03' E 026°38'8 9.4
2014-Oct-20 12:33N 37°08' E 026°29'9 9.3
2014-Oct-20 11:33N 37°12' E 026°19'9 9.2
2014-Oct-20 10:33N 37°17' E 026°09'9 9.2
2014-Oct-20 09:33N 37°23' E 025°60'8 8.5
2014-Oct-20 08:33N 37°28' E 025°51'1212.5
2014-Oct-20 07:33N 37°38' E 025°43'1616.2
2014-Oct-20 06:33N 37°53' E 025°35'1615.7
2014-Oct-20 05:33N 38°08' E 025°27'1111.0
2014-Oct-20 04:33N 38°18' E 025°21'95 9.5
2014-Oct-19 18:33N 39°38' E 024°16'10 9.1
2014-Oct-19 17:27N 39°41' E 024°03'  
2014-Oct-17 04:30N 39°43' E 023°55'1312.8
2014-Oct-17 03:29N 39°39' E 024°11'1111.7
2014-Oct-17 02:33N 39°33' E 024°23'6312.6
2014-Oct-16 21:33N 38°41' E 025°09'1312.6
2014-Oct-16 20:33N 38°30' E 025°15'1715.9
2014-Oct-16 19:28N 38°14' E 025°24'1716.5
2014-Oct-16 18:27N 37°58' E 025°32'1416.2
2014-Oct-16 17:33N 37°45' E 025°39'1616.3
2014-Oct-16 16:33N 37°30' E 025°48'1716.7
2014-Oct-16 15:33N 37°20' E 026°05'1716.6
2014-Oct-16 14:33N 37°11' E 026°22'1615.9
2014-Oct-16 13:33N 37°01' E 026°38'1616.3
2014-Oct-16 12:33N 36°45' E 026°43'1716.6
2014-Oct-16 11:33N 36°29' E 026°48'1716.5
2014-Oct-16 10:33N 36°17' E 027°02'1616.5
2014-Oct-16 09:33N 36°05' E 027°16'1616.2
2014-Oct-16 08:33N 35°51' E 027°26'1817.0
2014-Oct-16 07:31N 35°35' E 027°34'3816.7
2014-Oct-16 05:14N 34°60' E 027°51'4616.6
2014-Oct-16 02:29N 34°17' E 028°12'  
2014-Oct-13 10:31N 35°43' E 026°02'1313.1
2014-Oct-13 09:32N 35°49' E 025°48'1313.1
2014-Oct-13 08:34N 35°55' E 025°34'1313.3
2014-Oct-13 07:33N 36°02' E 025°19'1313.4
2014-Oct-13 06:34N 36°09' E 025°05'1313.2
2014-Oct-13 05:34N 36°14' E 024°51'1413.6
2014-Oct-13 04:33N 36°22' E 024°36'1313.0
2014-Oct-13 03:33N 36°28' E 024°22'1312.6
2014-Oct-13 02:33N 36°37' E 024°11'1313.1
2014-Oct-13 01:33N 36°49' E 024°03'1413.5
2014-Oct-13 00:32N 37°01' E 023°56'1512.6
2014-Oct-12 23:22N 37°16' E 023°52'1212.8
2014-Oct-12 22:25N 37°27' E 023°47'1113.1
2014-Oct-12 21:33N 37°38' E 023°43'1313.3
2014-Oct-12 20:33N 37°49' E 023°34'3 3.4
2014-Oct-12 19:31N 37°51' E 023°30'0 0.0
2014-Oct-12 18:31N 37°51' E 023°30'0 0.0
2014-Oct-12 17:31N 37°51' E 023°30'0 0.0
2014-Oct-12 16:31N 37°51' E 023°30'0 0.0
2014-Oct-12 15:31N 37°51' E 023°30'0 0.1
2014-Oct-12 14:31N 37°51' E 023°30'1 1.0
2014-Oct-12 13:34N 37°51' E 023°29'5 5.1
2014-Oct-12 12:33N 37°52' E 023°22'5 4.5
2014-Oct-12 11:27N 37°53' E 023°17'0 0.2
2014-Oct-12 10:30N 37°53' E 023°17'0 0.2
2014-Oct-12 09:24N 37°53' E 023°17'1 1.1
2014-Oct-12 08:30N 37°54' E 023°18'5 4.8
2014-Oct-12 07:33N 37°57' E 023°22'2 1.6
2014-Oct-12 06:33N 37°58' E 023°23'0 0.0
2014-Oct-12 05:33N 37°58' E 023°23'0 0.0
2014-Oct-12 04:33N 37°58' E 023°23'0 0.0
2014-Oct-12 03:33N 37°58' E 023°23'0 0.0
2014-Oct-12 02:33N 37°58' E 023°23'  
Track history (hours):
 
Tides and Currents Weather Stations Pressure Air Temp Water Temp Dewpoint Dewpoint Depression Visibility Wind Speed Wind Dir Waves Ship Positions

Bermuda Spirit

Last reported at 2014-Oct-22 02:24 UTC. Time now 2014-Oct-25 02:48 UTC.
Position N 35°45' E 032°56'.

Length 274 m; draft 9 m.

Type: Tanker. MMSI: 311020900.

Date/timePositionNaut miles runAvg speedWind from/ knotsBaromVisibWave heightAir tempDewpointWater temp
2014-Oct-22 02:24N 35°45' E 032°56'17 9.3
2014-Oct-22 00:33N 35°44' E 032°34'208 9.7
2014-Oct-21 03:05N 35°45' E 028°18'90 8.4
2014-Oct-20 16:24N 36°35' E 026°46'10 9.8
2014-Oct-20 15:24N 36°45' E 026°44'19 9.8
2014-Oct-20 13:25N 37°03' E 026°38'8 9.4
2014-Oct-20 12:33N 37°08' E 026°29'9 9.3
2014-Oct-20 11:33N 37°12' E 026°19'9 9.2
2014-Oct-20 10:33N 37°17' E 026°09'9 9.2
2014-Oct-20 09:33N 37°23' E 025°60'8 8.5
2014-Oct-20 08:33N 37°28' E 025°51'1212.5
2014-Oct-20 07:33N 37°38' E 025°43'1616.2
2014-Oct-20 06:33N 37°53' E 025°35'1615.7
2014-Oct-20 05:33N 38°08' E 025°27'1111.0
2014-Oct-20 04:33N 38°18' E 025°21'95 9.5
2014-Oct-19 18:33N 39°38' E 024°16'10 9.1
2014-Oct-19 17:27N 39°41' E 024°03'  
2014-Oct-17 04:30N 39°43' E 023°55'1312.8
2014-Oct-17 03:29N 39°39' E 024°11'1111.7
2014-Oct-17 02:33N 39°33' E 024°23'6312.6
2014-Oct-16 21:33N 38°41' E 025°09'1312.6
2014-Oct-16 20:33N 38°30' E 025°15'1715.9
2014-Oct-16 19:28N 38°14' E 025°24'1716.5
2014-Oct-16 18:27N 37°58' E 025°32'1416.2
2014-Oct-16 17:33N 37°45' E 025°39'1616.3
2014-Oct-16 16:33N 37°30' E 025°48'1716.7
2014-Oct-16 15:33N 37°20' E 026°05'1716.6
2014-Oct-16 14:33N 37°11' E 026°22'1615.9
2014-Oct-16 13:33N 37°01' E 026°38'1616.3
2014-Oct-16 12:33N 36°45' E 026°43'1716.6
2014-Oct-16 11:33N 36°29' E 026°48'1716.5
2014-Oct-16 10:33N 36°17' E 027°02'1616.5
2014-Oct-16 09:33N 36°05' E 027°16'1616.2
2014-Oct-16 08:33N 35°51' E 027°26'1817.0
2014-Oct-16 07:31N 35°35' E 027°34'3816.7
2014-Oct-16 05:14N 34°60' E 027°51'4616.6
2014-Oct-16 02:29N 34°17' E 028°12'  
2014-Oct-13 10:31N 35°43' E 026°02'1313.1
2014-Oct-13 09:32N 35°49' E 025°48'1313.1
2014-Oct-13 08:34N 35°55' E 025°34'1313.3
2014-Oct-13 07:33N 36°02' E 025°19'1313.4
2014-Oct-13 06:34N 36°09' E 025°05'1313.2
2014-Oct-13 05:34N 36°14' E 024°51'1413.6
2014-Oct-13 04:33N 36°22' E 024°36'1313.0
2014-Oct-13 03:33N 36°28' E 024°22'1312.6
2014-Oct-13 02:33N 36°37' E 024°11'1313.1
2014-Oct-13 01:33N 36°49' E 024°03'1413.5
2014-Oct-13 00:32N 37°01' E 023°56'1512.6
2014-Oct-12 23:22N 37°16' E 023°52'1212.8
2014-Oct-12 22:25N 37°27' E 023°47'1113.1
2014-Oct-12 21:33N 37°38' E 023°43'1313.3
2014-Oct-12 20:33N 37°49' E 023°34'3 3.4
2014-Oct-12 19:31N 37°51' E 023°30'0 0.0
2014-Oct-12 18:31N 37°51' E 023°30'0 0.0
2014-Oct-12 17:31N 37°51' E 023°30'0 0.0
2014-Oct-12 16:31N 37°51' E 023°30'0 0.0
2014-Oct-12 15:31N 37°51' E 023°30'0 0.1
2014-Oct-12 14:31N 37°51' E 023°30'1 1.0
2014-Oct-12 13:34N 37°51' E 023°29'5 5.1
2014-Oct-12 12:33N 37°52' E 023°22'5 4.5
2014-Oct-12 11:27N 37°53' E 023°17'0 0.2
2014-Oct-12 10:30N 37°53' E 023°17'0 0.2
2014-Oct-12 09:24N 37°53' E 023°17'1 1.1
2014-Oct-12 08:30N 37°54' E 023°18'5 4.8
2014-Oct-12 07:33N 37°57' E 023°22'2 1.6
2014-Oct-12 06:33N 37°58' E 023°23'0 0.0
2014-Oct-12 05:33N 37°58' E 023°23'0 0.0
2014-Oct-12 04:33N 37°58' E 023°23'0 0.0
2014-Oct-12 03:33N 37°58' E 023°23'0 0.0
2014-Oct-12 02:33N 37°58' E 023°23'  

Dump ship's entire track history